Decoded Metar for KDEQ (DE QUEEN in AR, USA) (IATA:DEQ) | Meteo·Mobile Aviation Weather
aviador You're here:

KDEQ Decoded Metar

DE QUEEN in AR, USA
Report Time2018-08-20 17:53:00
UTC Time2018-08-20 18:43:23
Flight Rules vfr VFR
Wind270° at 12 kt
W.Decomp.*RWY 26: 11.9 kt HW 1.3 kt RCW
W.Rank270° ranks 31
Current wind is above 270° avg. (6.2)
Visibility9999 m
Phenomena:N/A
Clouds:N/A
Expected CloudBase > 3,200 ft AGL from Temp-Dew spread
CeilingNone
Temp32°C (ISA +18)
Dew Point24°C (63% RH)
Heat Index38.0°C
QNH1013 hPa
Density Alt2,759 ft
Elevation348 ft
Report Wrong Elevation
Raw Report
KDEQ 201753Z AUTO 27012KT 10SM CLR 32/24 A2991 RMK AO2 SLP122
T03170239 10317 20222 58004 TSNO=

Extra information for KDEQ:More info

Metar Taf Metar & Taf Last 4 Metars F.Rules Stats Wind Profile Meteogram Temp Stats Airport Information Weather charts Add Link Nearby VenuesMetar ALERT Operation Metar Decoded Social comments

AIRNAV info for KDEQ